Time;durP1;ratioP1;P1;durP2;ratioP2;P2;SDS_P1;SDS_P2;PMS_P1;PMS_P2;Temp;Humidity;BMP_temperature;BMP_pressure;BME280_temperature;BME280_humidity;BME280_pressure;Samples;Min_cycle;Max_cycle;Signal;HPM_P1;HPM_P2
2021/07/08 00:01:01;;;;;;;10.30;5.03;;;19.80;89.70;;;;;;5015854;28;20208;-68
2021/07/08 00:03:28;;;;;;;9.02;4.55;;;19.80;89.80;;;;;;5013035;28;20753;-70
2021/07/08 00:05:55;;;;;;;6.25;3.60;;;19.80;89.90;;;;;;5016816;28;20208;-68
2021/07/08 00:08:22;;;;;;;9.25;4.35;;;19.70;90.00;;;;;;5017969;28;20216;-69
2021/07/08 00:10:53;;;;;;;6.20;3.85;;;19.70;90.00;;;;;;5013641;28;20575;-69
2021/07/08 00:13:22;;;;;;;7.70;3.72;;;19.70;90.10;;;;;;5016262;28;20211;-69
2021/07/08 00:15:49;;;;;;;7.85;4.03;;;19.60;90.20;;;;;;5017751;28;20204;-69
2021/07/08 00:18:16;;;;;;;10.05;4.13;;;19.60;90.30;;;;;;5014291;28;20212;-68
2021/07/08 00:20:46;;;;;;;8.23;4.60;;;19.60;90.30;;;;;;5012995;28;20668;-69
2021/07/08 00:23:13;;;;;;;7.10;4.60;;;19.60;90.40;;;;;;5013831;28;20575;-69
2021/07/08 00:25:41;;;;;;;13.10;5.63;;;19.60;90.50;;;;;;5011381;28;20240;-68
2021/07/08 00:28:12;;;;;;;10.05;4.90;;;19.50;90.60;;;;;;5010504;28;20227;-69
2021/07/08 00:30:40;;;;;;;7.00;4.60;;;19.50;90.70;;;;;;5011922;28;20291;-70
2021/07/08 00:33:07;;;;;;;7.35;4.43;;;19.50;90.80;;;;;;5013985;28;20205;-69
2021/07/08 00:35:33;;;;;;;8.52;4.18;;;19.40;90.80;;;;;;5012779;28;20664;-68
2021/07/08 00:38:01;;;;;;;9.88;4.70;;;19.40;90.90;;;;;;4996726;28;20219;-69
2021/07/08 00:40:27;;;;;;;9.13;4.88;;;19.40;91.00;;;;;;5013325;28;20251;-68
2021/07/08 00:42:54;;;;;;;8.25;4.15;;;19.30;91.10;;;;;;5012221;28;20224;-68
2021/07/08 00:45:24;;;;;;;11.15;4.90;;;19.30;91.10;;;;;;5011596;28;20719;-68
2021/07/08 00:47:51;;;;;;;8.32;4.53;;;19.30;91.20;;;;;;4999698;28;20205;-69
2021/07/08 00:50:22;;;;;;;9.00;4.32;;;19.20;91.30;;;;;;5010529;28;20224;-69
2021/07/08 00:52:49;;;;;;;9.90;4.47;;;19.20;91.40;;;;;;5012805;28;20262;-68
2021/07/08 00:55:15;;;;;;;8.63;4.82;;;19.20;91.50;;;;;;5008375;28;20200;-69
2021/07/08 00:57:52;;;;;;;13.13;4.45;;;19.20;91.60;;;;;;5012801;28;20627;-70
2021/07/08 01:00:19;;;;;;;8.80;4.78;;;19.10;91.70;;;;;;5011386;28;20203;-69
2021/07/08 01:02:49;;;;;;;10.85;4.50;;;19.10;91.80;;;;;;5009380;28;20375;-68
2021/07/08 01:05:16;;;;;;;11.10;4.72;;;19.10;91.90;;;;;;5011092;28;20208;-69
2021/07/08 01:07:45;;;;;;;9.52;4.63;;;19.10;91.90;;;;;;5013238;28;20220;-71
2021/07/08 01:10:12;;;;;;;6.85;4.53;;;19.10;92.10;;;;;;5011917;28;20224;-68
2021/07/08 01:12:39;;;;;;;9.30;4.20;;;19.10;92.20;;;;;;5014021;28;20607;-68
2021/07/08 01:15:07;;;;;;;9.50;5.15;;;19.10;92.20;;;;;;4993153;28;20200;-68
2021/07/08 01:17:34;;;;;;;9.93;4.75;;;19.10;92.20;;;;;;5012821;28;20255;-67
2021/07/08 01:20:02;;;;;;;12.68;4.72;;;19.10;92.30;;;;;;5011073;28;20195;-68
2021/07/08 01:22:30;;;;;;;8.30;5.00;;;19.00;92.30;;;;;;5013233;28;20266;-68
2021/07/08 01:24:57;;;;;;;10.43;5.05;;;19.00;92.40;;;;;;5011696;28;20302;-69
2021/07/08 01:27:24;;;;;;;9.70;5.00;;;19.00;92.50;;;;;;5012557;28;20596;-69
2021/07/08 01:29:51;;;;;;;10.88;4.75;;;18.90;92.60;;;;;;5013245;28;20212;-70
2021/07/08 01:32:17;;;;;;;7.13;5.03;;;18.90;92.60;;;;;;5008312;28;20259;-69
2021/07/08 01:34:44;;;;;;;10.32;5.18;;;18.90;92.80;;;;;;5013059;28;20200;-71
2021/07/08 01:37:12;;;;;;;10.00;4.97;;;18.90;92.80;;;;;;4993804;28;20595;-68
2021/07/08 01:39:40;;;;;;;11.30;5.22;;;18.90;92.90;;;;;;5011772;28;20661;-69
2021/07/08 01:42:07;;;;;;;9.85;5.60;;;18.90;92.90;;;;;;5007513;28;20250;-68
2021/07/08 01:44:34;;;;;;;8.93;4.90;;;18.90;92.90;;;;;;5014071;28;20208;-68
2021/07/08 01:47:01;;;;;;;12.25;5.32;;;18.80;93.00;;;;;;5010097;28;20670;-68
2021/07/08 01:49:27;;;;;;;8.63;5.63;;;18.80;93.00;;;;;;5012193;28;20254;-68
2021/07/08 01:51:54;;;;;;;12.98;6.03;;;18.80;93.10;;;;;;5011032;28;20192;-69
2021/07/08 01:54:21;;;;;;;9.45;5.47;;;18.70;93.10;;;;;;5014897;28;20804;-70
2021/07/08 01:56:49;;;;;;;8.75;5.15;;;18.70;93.30;;;;;;5007029;28;20208;-71
2021/07/08 01:59:16;;;;;;;13.38;5.57;;;18.70;93.30;;;;;;5010629;28;20684;-70
2021/07/08 02:01:43;;;;;;;9.85;5.70;;;18.70;93.40;;;;;;5008945;28;20205;-68
2021/07/08 02:04:10;;;;;;;9.10;5.38;;;18.70;93.40;;;;;;5013316;28;20259;-68
2021/07/08 02:06:37;;;;;;;10.30;5.40;;;18.70;93.50;;;;;;5009722;28;20212;-69
2021/07/08 02:09:06;;;;;;;10.07;5.57;;;18.70;93.60;;;;;;5009385;28;20589;-69
2021/07/08 02:11:33;;;;;;;10.77;5.55;;;18.70;93.60;;;;;;5011437;28;20205;-69
2021/07/08 02:14:04;;;;;;;8.52;5.63;;;18.70;93.70;;;;;;5011556;28;20250;-69
2021/07/08 02:16:31;;;;;;;10.95;5.70;;;18.70;93.80;;;;;;5010630;28;20251;-68
2021/07/08 02:18:58;;;;;;;8.10;5.13;;;18.70;93.90;;;;;;5002017;28;20205;-68
2021/07/08 02:21:24;;;;;;;9.43;5.63;;;18.60;93.90;;;;;;4995115;28;20206;-68
2021/07/08 02:23:52;;;;;;;10.18;5.75;;;18.60;94.10;;;;;;5010480;28;20323;-68
2021/07/08 02:26:19;;;;;;;12.43;5.80;;;18.60;94.20;;;;;;5008369;28;20243;-68
2021/07/08 02:28:46;;;;;;;8.88;5.70;;;18.60;94.30;;;;;;5009908;28;20262;-68
2021/07/08 02:31:14;;;;;;;10.10;5.60;;;18.60;94.40;;;;;;5008020;28;20539;-67
2021/07/08 02:33:40;;;;;;;8.68;5.68;;;18.60;94.50;;;;;;5014287;28;20266;-68
2021/07/08 02:36:08;;;;;;;9.35;5.50;;;18.50;94.50;;;;;;5014356;28;20204;-69
2021/07/08 02:38:36;;;;;;;12.38;5.78;;;18.50;94.60;;;;;;5016329;28;20610;-68
2021/07/08 02:41:04;;;;;;;10.57;6.30;;;18.50;94.80;;;;;;5010444;28;20244;-68
2021/07/08 02:43:33;;;;;;;13.07;6.07;;;18.50;94.80;;;;;;4992746;28;20212;-68
2021/07/08 02:46:00;;;;;;;;;;;18.40;94.90;;;;;;5008932;28;20250;-68
2021/07/08 02:48:28;;;;;;;;;;;18.40;95.00;;;;;;5012300;28;20799;-69
2021/07/08 02:50:56;;;;;;;8.85;6.13;;;18.40;95.10;;;;;;5012966;28;20493;-68
2021/07/08 02:53:23;;;;;;;;;;;18.30;95.10;;;;;;5013265;28;20204;-68
2021/07/08 02:55:50;;;;;;;;;;;18.30;95.20;;;;;;5008516;28;19969;-67
2021/07/08 02:58:17;;;;;;;;;;;18.30;95.20;;;;;;5011365;28;20029;-67
2021/07/08 03:00:44;;;;;;;11.32;7.00;;;18.30;95.20;;;;;;5012335;28;20579;-69
2021/07/08 03:03:11;;;;;;;13.30;7.00;;;18.20;95.20;;;;;;5015553;28;20215;-69
2021/07/08 03:05:40;;;;;;;11.32;7.05;;;18.20;95.20;;;;;;4991674;28;20239;-68
2021/07/08 03:08:07;;;;;;;11.77;7.22;;;18.20;95.30;;;;;;5006672;28;20204;-69
2021/07/08 03:10:34;;;;;;;13.82;7.60;;;18.20;95.30;;;;;;4989823;28;20309;-68
2021/07/08 03:13:01;;;;;;;15.30;7.90;;;18.20;95.40;;;;;;5011350;28;20266;-69
2021/07/08 03:15:29;;;;;;;17.77;8.57;;;18.10;95.40;;;;;;5011819;28;20208;-69
2021/07/08 03:17:57;;;;;;;11.65;7.88;;;18.10;95.50;;;;;;5011218;28;20200;-68
2021/07/08 03:20:26;;;;;;;15.35;8.02;;;18.10;95.60;;;;;;5010844;28;20246;-69
2021/07/08 03:23:01;;;;;;;14.65;8.75;;;18.10;95.70;;;;;;5010903;28;20258;-69
2021/07/08 03:25:29;;;;;;;19.77;7.70;;;18.00;95.70;;;;;;5009749;28;20224;-68
2021/07/08 03:27:57;;;;;;;11.73;7.63;;;18.00;95.80;;;;;;5012660;28;20212;-69
2021/07/08 03:30:24;;;;;;;;;;;18.00;95.90;;;;;;5006749;28;20212;-70
2021/07/08 03:32:52;;;;;;;;;;;18.00;95.90;;;;;;5011606;28;20013;-69
2021/07/08 03:35:18;;;;;;;13.07;7.80;;;17.90;95.90;;;;;;5005764;28;21101;-69
2021/07/08 03:37:45;;;;;;;11.98;6.70;;;17.90;95.90;;;;;;5010147;28;21053;-68
2021/07/08 03:40:15;;;;;;;14.02;7.60;;;17.90;96.00;;;;;;5010772;28;20205;-69
2021/07/08 03:42:43;;;;;;;15.40;8.05;;;17.90;96.40;;;;;;5010843;28;20200;-70
2021/07/08 03:45:11;;;;;;;11.80;7.38;;;17.80;96.00;;;;;;4995824;28;20610;-71
2021/07/08 03:47:38;;;;;;;10.27;6.93;;;17.80;96.00;;;;;;5010593;28;20258;-67
2021/07/08 03:50:07;;;;;;;13.27;6.82;;;17.80;96.10;;;;;;5006856;28;20212;-68
2021/07/08 03:52:33;;;;;;;14.68;7.10;;;17.80;96.20;;;;;;5011567;28;20556;-70
2021/07/08 03:55:00;;;;;;;10.23;6.70;;;17.80;96.20;;;;;;5011774;28;20964;-69
2021/07/08 03:57:28;;;;;;;11.38;7.20;;;17.80;96.20;;;;;;5013181;28;20201;-68
2021/07/08 03:59:55;;;;;;;14.38;7.72;;;17.70;96.20;;;;;;5011085;28;20209;-68
2021/07/08 04:02:22;;;;;;;16.10;8.10;;;17.70;96.20;;;;;;5012619;28;20204;-69
2021/07/08 04:04:49;;;;;;;11.45;7.85;;;17.70;96.30;;;;;;5008276;28;20215;-69
2021/07/08 04:07:17;;;;;;;12.52;7.60;;;17.70;96.30;;;;;;5009123;28;20598;-69
2021/07/08 04:09:43;;;;;;;12.13;7.63;;;17.70;96.50;;;;;;5009642;28;20721;-69
2021/07/08 04:12:10;;;;;;;14.57;8.90;;;17.70;96.60;;;;;;5013383;28;20255;-67
2021/07/08 04:14:38;;;;;;;13.02;8.25;;;17.70;96.70;;;;;;5011463;28;20286;-68
2021/07/08 04:17:06;;;;;;;14.20;8.93;;;17.70;96.80;;;;;;5014033;28;20239;-70
2021/07/08 04:19:32;;;;;;;15.57;9.70;;;17.70;96.90;;;;;;5011416;28;20205;-69
2021/07/08 04:21:59;;;;;;;17.27;9.02;;;17.70;97.10;;;;;;5014891;28;20243;-69
2021/07/08 04:24:26;;;;;;;14.82;8.63;;;17.70;99.90;;;;;;5011675;28;20237;-68
2021/07/08 04:26:53;;;;;;;14.38;8.88;;;17.80;98.90;;;;;;5011675;28;20205;-68
2021/07/08 04:29:20;;;;;;;15.95;9.80;;;17.80;99.90;;;;;;5014145;28;20200;-70
2021/07/08 04:31:49;;;;;;;18.50;9.50;;;17.90;99.90;;;;;;5009936;28;20219;-71
2021/07/08 04:34:16;;;;;;;14.63;9.38;;;17.80;99.90;;;;;;5009177;28;20199;-67
2021/07/08 04:36:43;;;;;;;16.13;9.40;;;17.90;99.10;;;;;;5013137;28;20200;-68
2021/07/08 04:39:10;;;;;;;16.77;9.50;;;17.80;97.90;;;;;;5014035;28;20232;-70
2021/07/08 04:41:37;;;;;;;15.88;9.90;;;17.80;98.80;;;;;;5014205;28;20206;-69
2021/07/08 04:44:05;;;;;;;20.45;10.43;;;17.90;99.60;;;;;;5014251;28;20204;-71
2021/07/08 04:46:32;;;;;;;20.92;10.05;;;18.00;99.90;;;;;;5007801;28;20319;-67
2021/07/08 04:49:00;;;;;;;18.17;10.10;;;18.00;99.90;;;;;;5013145;28;20205;-69
2021/07/08 04:51:27;;;;;;;16.40;9.98;;;18.00;98.60;;;;;;5010713;28;20220;-68
2021/07/08 04:53:54;;;;;;;17.55;9.23;;;18.10;98.60;;;;;;5007181;28;20200;-66
2021/07/08 04:56:21;;;;;;;18.02;10.18;;;18.20;99.90;;;;;;5007507;28;20204;-67
2021/07/08 04:58:48;;;;;;;15.50;9.90;;;18.20;99.90;;;;;;5003686;28;20557;-67
2021/07/08 05:01:15;;;;;;;15.60;9.35;;;18.30;99.90;;;;;;5009987;28;20197;-67
2021/07/08 05:03:41;;;;;;;14.98;9.60;;;18.30;98.40;;;;;;5012444;28;20203;-67
2021/07/08 05:06:09;;;;;;;14.82;9.25;;;18.30;98.40;;;;;;5005555;28;20306;-67
2021/07/08 05:08:36;;;;;;;14.88;8.85;;;18.40;98.30;;;;;;5009684;28;20236;-68
2021/07/08 05:11:03;;;;;;;15.13;9.18;;;18.40;98.20;;;;;;5010854;28;20220;-67
2021/07/08 05:13:30;;;;;;;18.30;9.38;;;18.50;98.10;;;;;;5007365;28;20217;-67
2021/07/08 05:15:57;;;;;;;15.00;9.23;;;18.50;98.00;;;;;;5006545;28;20212;-67
2021/07/08 05:18:24;;;;;;;25.45;9.18;;;18.50;97.90;;;;;;5011792;28;20254;-66
2021/07/08 05:20:51;;;;;;;13.95;9.00;;;18.50;97.80;;;;;;5012385;28;20291;-67
2021/07/08 05:23:24;;;;;;;18.88;9.27;;;18.60;97.80;;;;;;5014728;28;20216;-66
2021/07/08 05:25:52;;;;;;;16.65;9.43;;;18.60;97.70;;;;;;4994103;28;20310;-67
2021/07/08 05:28:19;;;;;;;18.40;9.70;;;18.60;97.70;;;;;;5009164;28;20812;-67
2021/07/08 05:30:46;;;;;;;15.70;9.38;;;18.60;97.60;;;;;;5010016;28;20680;-68
2021/07/08 05:33:13;;;;;;;17.73;8.77;;;18.60;97.60;;;;;;5010894;28;20231;-66
2021/07/08 05:35:39;;;;;;;15.27;9.30;;;18.60;97.60;;;;;;5010896;28;20255;-66
2021/07/08 05:38:07;;;;;;;18.42;9.02;;;18.60;97.60;;;;;;4992196;28;20228;-67
2021/07/08 05:40:35;;;;;;;14.88;9.10;;;18.60;97.60;;;;;;5008295;28;20251;-67
2021/07/08 05:43:02;;;;;;;14.82;8.88;;;18.60;97.60;;;;;;5012869;28;20215;-68
2021/07/08 05:45:29;;;;;;;17.20;9.35;;;18.60;97.70;;;;;;5010278;28;20201;-68
2021/07/08 05:47:56;;;;;;;15.38;9.15;;;18.70;97.70;;;;;;5010504;28;20283;-67
2021/07/08 05:50:22;;;;;;;12.85;9.30;;;18.70;98.00;;;;;;5010229;28;20295;-68
2021/07/08 05:52:49;;;;;;;14.10;9.18;;;18.70;97.70;;;;;;5012791;28;20267;-68
2021/07/08 05:55:16;;;;;;;20.30;10.02;;;18.70;97.70;;;;;;5008398;28;20270;-68
2021/07/08 05:57:47;;;;;;;18.70;8.77;;;18.70;97.70;;;;;;5009565;28;20693;-67
2021/07/08 06:00:16;;;;;;;15.52;9.27;;;18.70;97.70;;;;;;5007832;28;20554;-68
2021/07/08 06:02:43;;;;;;;16.10;9.10;;;18.70;97.70;;;;;;5010332;28;20205;-69
2021/07/08 06:05:10;;;;;;;16.85;9.30;;;18.70;97.70;;;;;;4990980;28;20212;-68
2021/07/08 06:07:37;;;;;;;15.00;9.18;;;18.70;97.80;;;;;;4992840;28;20240;-68
2021/07/08 06:10:06;;;;;;;20.40;8.88;;;18.70;97.80;;;;;;5011206;28;20208;-68
2021/07/08 06:12:33;;;;;;;17.70;8.90;;;18.70;97.90;;;;;;5010510;28;20617;-69
2021/07/08 06:15:02;;;;;;;13.10;8.30;;;18.70;98.00;;;;;;4996164;28;20298;-67
2021/07/08 06:17:29;;;;;;;15.55;8.65;;;18.70;98.10;;;;;;5013591;28;20341;-66
2021/07/08 06:19:56;;;;;;;13.55;8.20;;;18.80;98.20;;;;;;5010448;28;20201;-66
2021/07/08 06:22:22;;;;;;;15.27;8.30;;;18.80;98.30;;;;;;5011845;28;20699;-66
2021/07/08 06:24:49;;;;;;;15.73;8.55;;;18.70;98.40;;;;;;5008090;28;20293;-65
2021/07/08 06:27:16;;;;;;;13.75;7.38;;;18.70;98.40;;;;;;5012290;28;20200;-66
2021/07/08 06:29:43;;;;;;;11.82;7.60;;;18.80;98.60;;;;;;5008984;28;20283;-69
2021/07/08 06:32:14;;;;;;;14.90;7.85;;;18.70;98.60;;;;;;5012535;28;20228;-68
2021/07/08 06:34:41;;;;;;;16.05;8.00;;;18.70;98.70;;;;;;5011198;28;20699;-68
2021/07/08 06:37:08;;;;;;;12.82;7.45;;;18.70;98.80;;;;;;5008415;28;20208;-69
2021/07/08 06:39:35;;;;;;;13.23;7.10;;;18.70;98.90;;;;;;5007567;28;20227;-66
2021/07/08 06:42:02;;;;;;;14.77;7.78;;;18.70;99.10;;;;;;5009690;28;20691;-67
2021/07/08 06:44:28;;;;;;;14.52;7.57;;;18.70;99.20;;;;;;5002486;28;20200;-66
2021/07/08 06:46:55;;;;;;;15.07;7.88;;;18.70;99.30;;;;;;5002797;28;20231;-69
2021/07/08 06:49:24;;;;;;;13.02;7.30;;;18.70;99.50;;;;;;5005636;28;20231;-67
2021/07/08 06:51:50;;;;;;;16.08;7.40;;;18.70;99.60;;;;;;5002374;28;20283;-67
2021/07/08 06:54:17;;;;;;;11.88;7.15;;;18.70;99.80;;;;;;5005650;28;20597;-67
2021/07/08 06:56:44;;;;;;;19.98;7.15;;;18.80;99.90;;;;;;4990183;28;20204;-70
2021/07/08 06:59:11;;;;;;;11.77;7.03;;;18.80;99.90;;;;;;5014138;28;20664;-69
2021/07/08 07:01:38;;;;;;;15.95;7.30;;;18.80;99.90;;;;;;4999840;28;20236;-68
2021/07/08 07:04:05;;;;;;;11.88;6.40;;;18.80;99.90;;;;;;5009415;28;20207;-67
2021/07/08 07:06:33;;;;;;;9.77;4.95;;;18.90;99.90;;;;;;4988684;28;20239;-68
2021/07/08 07:09:00;;;;;;;13.52;6.57;;;18.90;99.90;;;;;;4991715;28;20220;-69
2021/07/08 07:11:27;;;;;;;8.02;4.70;;;18.90;99.90;;;;;;5007562;28;20212;-69
2021/07/08 07:13:53;;;;;;;8.43;4.35;;;18.90;99.90;;;;;;5014429;28;20668;-69
2021/07/08 07:16:20;;;;;;;8.73;5.15;;;18.90;99.90;;;;;;5007427;28;20200;-67
2021/07/08 07:18:47;;;;;;;10.40;5.68;;;18.90;99.90;;;;;;5011834;28;20256;-69
2021/07/08 07:21:14;;;;;;;8.80;4.80;;;18.90;99.90;;;;;;5005744;28;20212;-68
2021/07/08 07:23:43;;;;;;;10.15;5.18;;;19.00;99.90;;;;;;5011653;28;20612;-70
2021/07/08 07:26:10;;;;;;;8.73;4.50;;;19.00;99.90;;;;;;5010543;28;20243;-68
2021/07/08 07:28:38;;;;;;;9.25;4.72;;;19.10;99.80;;;;;;5008449;28;20686;-69
2021/07/08 07:31:05;;;;;;;12.70;4.80;;;19.10;99.70;;;;;;5012465;28;20347;-69
2021/07/08 07:33:32;;;;;;;7.13;4.35;;;19.10;99.60;;;;;;5012520;28;20200;-69
2021/07/08 07:36:00;;;;;;;8.85;4.20;;;19.10;99.50;;;;;;5017219;28;20952;-69
2021/07/08 07:38:26;;;;;;;5.20;3.72;;;19.20;99.20;;;;;;5013523;28;20305;-69
2021/07/08 07:40:55;;;;;;;7.85;4.05;;;19.20;98.90;;;;;;5016762;28;20647;-67
2021/07/08 07:43:22;;;;;;;6.63;3.47;;;19.20;98.60;;;;;;5014686;28;20227;-68
2021/07/08 07:45:50;;;;;;;9.13;3.30;;;19.20;98.20;;;;;;5013963;28;20570;-68
2021/07/08 07:48:17;;;;;;;6.35;3.53;;;19.30;97.70;;;;;;5018077;28;20291;-67
2021/07/08 07:50:44;;;;;;;6.00;3.50;;;19.30;97.40;;;;;;5013176;28;20295;-69
2021/07/08 07:53:11;;;;;;;9.05;3.60;;;19.30;97.10;;;;;;5006869;28;20248;-69
2021/07/08 07:55:38;;;;;;;6.78;3.80;;;19.40;96.90;;;;;;5016601;28;20279;-71
2021/07/08 07:58:07;;;;;;;7.25;4.03;;;19.40;96.70;;;;;;5013254;28;20212;-69
2021/07/08 08:00:34;;;;;;;7.93;3.60;;;19.40;96.60;;;;;;5013982;28;20649;-71
2021/07/08 08:03:01;;;;;;;8.02;3.97;;;19.40;96.60;;;;;;5012511;28;20549;-69
2021/07/08 08:05:39;;;;;;;9.07;4.65;;;19.50;96.70;;;;;;5015161;28;20204;-70
2021/07/08 08:10:56;;;;;;;8.73;3.90;;;19.50;96.70;;;;;;5011410;28;20192;-70
2021/07/08 08:13:26;;;;;;;7.50;3.80;;;19.50;97.20;;;;;;5015452;28;20202;-68
2021/07/08 08:15:54;;;;;;;11.35;4.35;;;19.60;96.90;;;;;;5012308;28;20693;-71
2021/07/08 08:18:23;;;;;;;6.38;3.65;;;19.60;96.90;;;;;;5010457;28;20211;-69
2021/07/08 08:20:50;;;;;;;9.75;4.32;;;19.60;96.90;;;;;;5016435;28;20649;-68
2021/07/08 08:23:17;;;;;;;9.77;4.10;;;19.70;97.00;;;;;;5015000;28;20687;-69
2021/07/08 08:25:44;;;;;;;5.55;3.70;;;19.70;96.80;;;;;;5015046;28;20228;-69
2021/07/08 08:28:11;;;;;;;5.30;3.83;;;19.70;96.70;;;;;;5010948;28;20208;-68
2021/07/08 08:30:40;;;;;;;7.25;4.20;;;19.70;96.60;;;;;;5008502;28;20270;-68
2021/07/08 08:33:07;;;;;;;7.82;4.47;;;19.70;96.50;;;;;;5014458;28;20227;-69
2021/07/08 08:35:34;;;;;;;10.23;4.65;;;19.70;96.30;;;;;;5015229;28;21326;-70
2021/07/08 08:38:01;;;;;;;11.07;4.43;;;19.80;96.30;;;;;;5016336;28;20200;-69
2021/07/08 08:40:28;;;;;;;8.60;4.57;;;19.80;96.30;;;;;;4994489;28;20293;-69
2021/07/08 08:42:55;;;;;;;7.22;4.18;;;19.80;96.40;;;;;;5012187;28;20208;-69
2021/07/08 08:45:22;;;;;;;6.45;4.07;;;19.90;96.30;;;;;;5015732;28;20195;-69
2021/07/08 08:47:55;;;;;;;8.18;4.55;;;19.90;96.10;;;;;;4995744;28;20255;-70
2021/07/08 08:50:22;;;;;;;9.18;4.30;;;19.90;96.10;;;;;;5012693;28;20277;-70
2021/07/08 08:52:50;;;;;;;7.65;4.45;;;19.90;96.20;;;;;;4997720;28;20255;-70
2021/07/08 08:55:17;;;;;;;10.48;4.60;;;20.00;96.20;;;;;;5011012;28;20634;-68
2021/07/08 08:57:45;;;;;;;10.80;4.90;;;20.00;96.20;;;;;;5018058;28;20208;-68
2021/07/08 09:00:37;;;;;;;10.93;4.60;;;20.00;96.10;;;;;;5012969;28;20205;-66
2021/07/08 09:03:07;;;;;;;6.45;4.43;;;20.00;96.10;;;;;;5005931;28;20275;-69
2021/07/08 09:05:34;;;;;;;8.90;4.18;;;20.00;96.00;;;;;;5013754;28;20266;-70
2021/07/08 09:08:11;;;;;;;8.70;4.30;;;20.00;96.00;;;;;;5016928;28;20228;-67
2021/07/08 09:10:38;;;;;;;12.93;4.72;;;20.00;96.10;;;;;;5012378;28;20291;-68
2021/07/08 09:13:06;;;;;;;7.63;4.35;;;20.10;96.20;;;;;;5014479;28;20267;-67
2021/07/08 09:15:33;;;;;;;8.90;4.55;;;20.10;96.30;;;;;;5010239;28;20232;-70
2021/07/08 09:18:00;;;;;;;11.27;4.88;;;20.10;96.30;;;;;;5011689;28;20585;-68
2021/07/08 09:20:28;;;;;;;8.73;4.68;;;20.10;96.40;;;;;;5012625;28;20738;-70
2021/07/08 09:23:09;;;;;;;13.75;4.60;;;20.20;96.30;;;;;;5015103;28;20196;-68
2021/07/08 09:25:36;;;;;;;8.45;4.68;;;20.20;96.40;;;;;;4998403;28;20250;-70
2021/07/08 09:28:20;;;;;;;7.80;4.45;;;20.30;96.60;;;;;;5013113;28;20203;-69
2021/07/08 09:30:57;;;;;;;8.68;4.40;;;20.30;96.50;;;;;;4995888;28;20220;-66
2021/07/08 09:33:44;;;;;;;11.32;4.68;;;20.30;96.50;;;;;;5014922;28;20673;-67
2021/07/08 09:36:15;;;;;;;8.23;4.43;;;20.40;96.40;;;;;;5010374;28;20216;-67
2021/07/08 09:38:43;;;;;;;10.60;4.78;;;20.50;96.30;;;;;;5014064;28;20688;-69
2021/07/08 09:41:14;;;;;;;8.80;4.75;;;20.50;96.20;;;;;;5013306;28;20251;-68
2021/07/08 09:43:41;;;;;;;10.43;5.10;;;20.50;96.20;;;;;;5010592;28;20208;-69
2021/07/08 09:46:09;;;;;;;9.13;4.80;;;20.60;96.20;;;;;;5007078;28;20735;-66
2021/07/08 09:48:36;;;;;;;7.60;4.38;;;20.60;96.10;;;;;;5013876;28;20267;-69
2021/07/08 09:51:03;;;;;;;8.57;4.97;;;20.60;96.10;;;;;;5008504;28;20625;-68
2021/07/08 09:53:32;;;;;;;10.82;4.93;;;20.70;96.40;;;;;;5010016;28;20282;-67
2021/07/08 09:56:10;;;;;;;9.60;4.47;;;20.70;96.00;;;;;;5014425;28;20208;-68
2021/07/08 09:58:51;;;;;;;10.80;5.10;;;20.70;95.90;;;;;;5012366;28;20216;-68
2021/07/08 10:01:18;;;;;;;8.25;3.97;;;20.70;95.80;;;;;;5011229;28;21005;-67
2021/07/08 10:03:45;;;;;;;9.60;4.35;;;20.80;95.60;;;;;;5008183;28;20956;-69
2021/07/08 10:06:13;;;;;;;7.05;4.22;;;20.70;95.30;;;;;;5011227;28;20279;-68
2021/07/08 10:08:42;;;;;;;14.05;4.50;;;20.80;95.10;;;;;;5011019;28;20216;-68
2021/07/08 10:11:12;;;;;;;10.32;4.53;;;20.80;95.00;;;;;;5010606;28;20266;-68
2021/07/08 10:13:39;;;;;;;7.50;4.65;;;20.80;94.90;;;;;;5010499;28;20286;-69
2021/07/08 10:16:07;;;;;;;11.02;4.57;;;20.80;94.70;;;;;;5010151;28;20192;-66
2021/07/08 10:18:39;;;;;;;8.15;4.70;;;20.90;94.70;;;;;;5015811;28;20253;-68
2021/07/08 10:21:07;;;;;;;8.45;4.45;;;20.90;94.60;;;;;;5015112;28;20208;-69
2021/07/08 10:23:35;;;;;;;9.10;4.57;;;20.90;94.50;;;;;;5011339;28;20570;-67
2021/07/08 10:26:05;;;;;;;9.65;4.20;;;21.00;94.40;;;;;;5004687;28;20260;-68
2021/07/08 10:28:35;;;;;;;6.45;4.47;;;21.00;94.10;;;;;;5016813;28;20664;-68
2021/07/08 10:31:03;;;;;;;8.27;4.32;;;21.00;94.40;;;;;;5009542;28;20214;-68
2021/07/08 10:33:30;;;;;;;11.18;4.78;;;21.00;94.10;;;;;;5012130;28;20216;-67
2021/07/08 10:35:58;;;;;;;10.05;4.78;;;21.10;94.20;;;;;;5008315;28;20617;-68
2021/07/08 10:38:33;;;;;;;9.95;5.13;;;21.10;94.30;;;;;;5004941;28;20216;-67
2021/07/08 10:41:01;;;;;;;10.43;5.32;;;21.20;94.40;;;;;;5008409;28;20283;-70
2021/07/08 10:43:36;;;;;;;9.15;5.28;;;21.30;94.50;;;;;;5012202;28;21611;-70
2021/07/08 10:46:05;;;;;;;8.57;4.25;;;21.40;94.40;;;;;;5011073;28;20277;-69
2021/07/08 10:48:42;;;;;;;6.68;4.40;;;21.40;94.00;;;;;;5015107;28;20254;-68
2021/07/08 10:51:15;;;;;;;11.40;4.43;;;21.50;93.70;;;;;;5008878;28;20721;-69
2021/07/08 10:53:42;;;;;;;8.93;4.63;;;21.60;93.60;;;;;;5013169;28;20634;-69
2021/07/08 10:56:14;;;;;;;8.23;4.10;;;21.60;93.40;;;;;;5011536;28;20548;-69
2021/07/08 10:58:46;;;;;;;7.53;4.95;;;21.60;93.20;;;;;;4997000;28;20675;-68
2021/07/08 11:01:43;;;;;;;7.28;4.40;;;21.70;93.00;;;;;;5009161;28;20200;-69
2021/07/08 11:04:11;;;;;;;8.73;4.20;;;21.60;92.90;;;;;;4989849;28;20208;-67
2021/07/08 11:06:40;;;;;;;9.77;4.60;;;21.70;93.00;;;;;;5005266;28;20216;-69
2021/07/08 11:09:08;;;;;;;7.47;4.40;;;21.70;92.80;;;;;;5011177;28;20204;-69
2021/07/08 11:11:59;;;;;;;9.50;4.32;;;21.80;92.70;;;;;;5014945;28;20208;-69
2021/07/08 11:14:29;;;;;;;10.85;4.50;;;21.80;92.50;;;;;;5013263;28;20730;-69
2021/07/08 11:16:59;;;;;;;8.55;4.63;;;21.80;92.40;;;;;;5012689;28;20214;-69
2021/07/08 11:19:38;;;;;;;8.65;4.07;;;21.70;92.30;;;;;;5013543;28;20251;-69
2021/07/08 11:22:08;;;;;;;7.22;4.68;;;21.80;92.30;;;;;;5012832;28;20195;-67
2021/07/08 11:24:44;;;;;;;7.07;3.45;;;21.80;92.40;;;;;;4998282;28;20559;-70
2021/07/08 11:27:13;;;;;;;6.60;3.97;;;21.90;92.10;;;;;;4994278;28;20231;-70
2021/07/08 11:29:43;;;;;;;8.43;4.00;;;21.90;91.70;;;;;;5010003;28;20215;-70
2021/07/08 11:32:25;;;;;;;10.48;4.25;;;21.90;91.50;;;;;;5013054;28;20211;-69
2021/07/08 11:34:56;;;;;;;9.75;3.72;;;22.00;91.20;;;;;;5010249;28;20206;-68
2021/07/08 11:37:24;;;;;;;11.05;4.10;;;22.00;91.20;;;;;;5012321;28;20207;-69
2021/07/08 11:39:57;;;;;;;9.85;4.00;;;22.10;91.50;;;;;;5007389;28;20204;-66
2021/07/08 11:42:30;;;;;;;10.20;3.78;;;22.30;91.20;;;;;;4991280;28;20204;-68
2021/07/08 11:45:01;;;;;;;5.10;3.80;;;22.40;90.90;;;;;;5014499;28;20255;-69
2021/07/08 11:47:38;;;;;;;7.68;3.47;;;22.40;90.40;;;;;;5003511;28;20637;-66
2021/07/08 11:50:16;;;;;;;10.35;4.20;;;22.50;90.10;;;;;;5009727;28;20664;-67
2021/07/08 11:52:43;;;;;;;4.70;3.33;;;22.60;89.70;;;;;;5009617;28;20220;-66
2021/07/08 11:55:10;;;;;;;10.10;4.18;;;22.60;89.20;;;;;;5009913;28;20327;-67
2021/07/08 11:57:54;;;;;;;9.00;4.22;;;22.60;88.80;;;;;;5008771;28;20208;-66
2021/07/08 12:00:36;;;;;;;10.38;4.80;;;22.70;89.00;;;;;;5008994;28;20204;-71
2021/07/08 12:03:19;;;;;;;8.75;4.32;;;22.70;89.40;;;;;;5012281;28;20377;-68
2021/07/08 12:05:46;;;;;;;13.23;4.70;;;22.80;89.50;;;;;;5009046;28;20204;-68
2021/07/08 12:08:22;;;;;;;10.20;4.47;;;22.80;89.30;;;;;;5012199;28;20271;-70
2021/07/08 12:10:54;;;;;;;11.60;4.88;;;22.80;89.40;;;;;;5011210;28;20208;-67
2021/07/08 12:13:21;;;;;;;9.88;4.63;;;22.90;89.70;;;;;;5015094;28;20770;-69
2021/07/08 12:15:49;;;;;;;10.32;4.65;;;23.00;89.20;;;;;;5005785;28;20204;-70
2021/07/08 12:18:16;;;;;;;7.00;3.97;;;23.10;88.90;;;;;;5014297;28;20259;-68
2021/07/08 12:20:49;;;;;;;9.98;4.00;;;23.20;88.00;;;;;;5015159;28;20267;-71
2021/07/08 12:23:16;;;;;;;7.32;4.35;;;23.30;87.20;;;;;;5001053;28;20201;-70
2021/07/08 12:25:43;;;;;;;8.98;4.43;;;23.30;87.20;;;;;;5010067;28;20642;-67
2021/07/08 12:28:11;;;;;;;11.15;4.85;;;23.30;87.50;;;;;;5017152;28;20192;-70
2021/07/08 12:30:37;;;;;;;10.93;4.20;;;23.40;87.60;;;;;;5013436;28;20855;-67
2021/07/08 12:33:07;;;;;;;;;;;23.50;87.00;;;;;;5017984;28;20228;-67
2021/07/08 12:35:41;;;;;;;;;;;23.70;86.20;;;;;;5013757;28;20032;-68
2021/07/08 12:38:08;;;;;;;11.50;4.20;;;23.80;86.00;;;;;;5015573;28;20393;-67
2021/07/08 12:40:35;;;;;;;8.38;4.32;;;23.90;85.30;;;;;;5011880;28;20258;-70
2021/07/08 12:43:08;;;;;;;9.05;4.35;;;23.90;84.40;;;;;;5017025;28;20561;-67
2021/07/08 12:45:36;;;;;;;7.07;4.20;;;24.00;84.00;;;;;;5013034;28;20204;-67
2021/07/08 12:48:04;;;;;;;10.98;4.30;;;24.20;83.40;;;;;;5011362;28;20295;-68
2021/07/08 12:50:36;;;;;;;9.65;4.32;;;24.30;82.60;;;;;;5010300;28;20226;-70
2021/07/08 12:53:06;;;;;;;8.20;4.05;;;24.40;82.00;;;;;;5015053;28;20216;-69